Time;durP1;ratioP1;P1;durP2;ratioP2;P2;SDS_P1;SDS_P2;PMS_P1;PMS_P2;Temp;Humidity;BMP_temperature;BMP_pressure;BME280_temperature;BME280_humidity;BME280_pressure;Samples;Min_cycle;Max_cycle;Signal;HPM_P1;HPM_P2
2022/05/04 00:00:25;;;;;;;18.20;5.40;;;;;;;8.98;60.50;99219.63;25201;1313;3054613;-64
2022/05/04 00:02:54;;;;;;;16.00;4.50;;;;;;;9.00;60.26;99220.23;25159;1313;3028041;-67
2022/05/04 00:05:23;;;;;;;13.70;3.70;;;;;;;8.96;60.40;99222.94;25450;1312;3052361;-66
2022/05/04 00:07:53;;;;;;;13.00;3.20;;;;;;;8.92;60.28;99225.73;25599;1313;3026271;-66
2022/05/04 00:10:23;;;;;;;14.10;3.00;;;;;;;8.95;60.00;99228.38;25580;1313;3027055;-65
2022/05/04 00:12:52;;;;;;;14.80;2.50;;;;;;;8.92;60.25;99225.78;25233;1313;3026891;-66
2022/05/04 00:15:21;;;;;;;6.00;2.20;;;;;;;8.91;60.21;99224.05;25156;1312;3026327;-66
2022/05/04 00:17:50;;;;;;;5.70;2.10;;;;;;;8.87;60.27;99221.67;25143;1313;3055864;-66
2022/05/04 00:20:19;;;;;;;4.10;2.20;;;;;;;8.87;60.25;99225.67;25198;1313;3026848;-65
2022/05/04 00:22:49;;;;;;;7.80;2.60;;;;;;;8.81;60.15;99222.72;25179;1313;3051962;-66
2022/05/04 00:25:18;;;;;;;7.90;2.80;;;;;;;8.78;60.00;99220.27;25147;1313;3028336;-66
2022/05/04 00:27:47;;;;;;;9.10;2.20;;;;;;;8.84;59.71;99224.80;25171;1313;3054741;-66
2022/05/04 00:30:16;;;;;;;4.00;2.00;;;;;;;8.90;59.60;99225.52;25141;1313;3027153;-67
2022/05/04 00:32:47;;;;;;;6.60;2.10;;;;;;;8.94;59.11;99227.39;25125;1312;3027307;-67
2022/05/04 00:35:16;;;;;;;6.60;2.50;;;;;;;8.84;59.20;99221.36;25105;1315;3026543;-66
2022/05/04 00:37:45;;;;;;;3.20;1.80;;;;;;;8.84;59.19;99219.23;25185;1313;3026711;-65
2022/05/04 00:40:14;;;;;;;4.80;2.50;;;;;;;8.77;59.17;99222.23;25158;1313;3058764;-65
2022/05/04 00:42:43;;;;;;;4.80;2.10;;;;;;;8.76;59.35;99217.11;25154;1311;3026435;-65
2022/05/04 00:45:12;;;;;;;5.40;2.70;;;;;;;8.76;59.40;99216.52;25166;1312;3026902;-66
2022/05/04 00:47:42;;;;;;;6.30;2.50;;;;;;;8.86;59.05;99214.75;25138;1312;3058039;-66
2022/05/04 00:50:11;;;;;;;6.50;2.70;;;;;;;8.79;59.14;99211.46;25157;1311;3026424;-65
2022/05/04 00:52:42;;;;;;;8.10;3.00;;;;;;;8.67;59.58;99217.40;25157;1312;3054652;-65
2022/05/04 00:55:11;;;;;;;6.30;2.80;;;;;;;8.72;59.35;99214.52;25224;1313;3026102;-67
2022/05/04 01:00:33;;;;;;;7.00;2.90;;;;;;;8.74;59.07;99205.81;25190;1313;3055497;-66
2022/05/04 01:03:03;;;;;;;9.00;2.70;;;;;;;8.70;59.35;99203.95;25135;1312;3028534;-64
2022/05/04 01:05:32;;;;;;;9.80;2.90;;;;;;;8.64;59.35;99205.34;25095;1312;3026424;-66
2022/05/04 01:08:01;;;;;;;11.60;2.80;;;;;;;8.60;59.52;99207.64;25167;1312;3051937;-66
2022/05/04 01:10:31;;;;;;;7.00;2.80;;;;;;;8.61;59.44;99206.40;25160;1313;3027269;-66
2022/05/04 01:13:00;;;;;;;7.20;2.80;;;;;;;8.69;58.98;99206.63;25124;1313;3026673;-63
2022/05/04 01:15:29;;;;;;;13.80;3.30;;;;;;;8.63;58.99;99205.90;25200;1313;3055262;-66
2022/05/04 01:17:58;;;;;;;4.70;2.30;;;;;;;8.57;59.46;99207.66;25140;1312;3026350;-65
2022/05/04 01:20:27;;;;;;;5.20;3.00;;;;;;;8.61;59.27;99207.64;25178;1312;3051313;-65
2022/05/04 01:22:56;;;;;;;6.00;2.60;;;;;;;8.72;58.88;99205.08;25119;1313;3029527;-66
2022/05/04 01:25:26;;;;;;;9.80;2.70;;;;;;;8.56;59.28;99205.44;25174;1313;3055478;-65
2022/05/04 01:27:55;;;;;;;9.10;2.40;;;;;;;8.59;59.14;99204.41;25188;1313;3026304;-66
2022/05/04 01:30:25;;;;;;;10.70;2.80;;;;;;;8.56;59.25;99203.55;25160;1311;3026402;-65
2022/05/04 01:32:54;;;;;;;10.10;2.90;;;;;;;8.52;59.17;99205.83;25159;1313;3026202;-66
2022/05/04 01:35:23;;;;;;;5.20;2.40;;;;;;;8.55;59.21;99200.30;25156;1312;3028411;-66
2022/05/04 01:37:52;;;;;;;9.10;3.10;;;;;;;8.58;58.82;99200.96;25149;1313;3052506;-64
2022/05/04 01:40:21;;;;;;;9.30;2.60;;;;;;;8.49;59.00;99202.02;25212;1313;3029988;-66
2022/05/04 01:42:50;;;;;;;5.50;2.90;;;;;;;8.46;59.02;99199.17;25135;1313;3049484;-66
2022/05/04 01:45:19;;;;;;;10.30;2.60;;;;;;;8.58;58.54;99197.84;25152;1315;3029211;-67
2022/05/04 01:47:49;;;;;;;5.50;2.50;;;;;;;8.49;58.45;99198.68;25156;1313;3055339;-66
2022/05/04 01:50:18;;;;;;;7.70;2.50;;;;;;;8.51;58.40;99197.55;25168;1312;3026360;-67
2022/05/04 01:52:47;;;;;;;8.40;2.80;;;;;;;8.54;58.30;99197.16;25185;1313;3027036;-64
2022/05/04 01:55:18;;;;;;;4.50;2.50;;;;;;;8.51;58.39;99189.86;25097;1315;3026510;-65
2022/05/04 01:57:47;;;;;;;7.50;2.40;;;;;;;8.58;57.90;99190.70;25154;1311;3026611;-64
2022/05/04 02:00:16;;;;;;;8.40;2.50;;;;;;;8.57;57.97;99190.73;25117;1312;3026572;-65
2022/05/04 02:02:46;;;;;;;8.30;3.20;;;;;;;8.60;57.90;99191.09;25157;1312;3053582;-67
2022/05/04 02:05:15;;;;;;;8.00;3.10;;;;;;;8.57;57.86;99194.24;25166;1313;3026870;-65
2022/05/04 02:07:45;;;;;;;4.90;2.20;;;;;;;8.54;58.09;99193.33;25177;1313;3026587;-66
2022/05/04 02:10:14;;;;;;;9.70;2.70;;;;;;;8.57;57.96;99190.20;25127;1312;3026462;-63
2022/05/04 02:12:43;;;;;;;6.60;2.20;;;;;;;8.51;58.16;99194.58;25166;1311;3071833;-68
2022/05/04 02:15:12;;;;;;;5.30;2.50;;;;;;;8.52;58.17;99189.59;25181;1313;3026303;-65
2022/05/04 02:17:41;;;;;;;7.60;2.70;;;;;;;8.55;58.04;99187.55;25179;1313;3050408;-65
2022/05/04 02:20:10;;;;;;;5.50;2.70;;;;;;;8.43;58.45;99187.98;25126;1315;3026488;-65
2022/05/04 02:22:39;;;;;;;10.20;2.60;;;;;;;8.38;58.83;99190.33;25163;1315;3026681;-65
2022/05/04 02:25:09;;;;;;;5.90;2.70;;;;;;;8.43;58.66;99190.62;25147;1313;3053469;-66
2022/05/04 02:27:38;;;;;;;5.70;2.00;;;;;;;8.38;58.80;99190.38;25126;1313;3026884;-65
2022/05/04 02:30:07;;;;;;;3.70;2.10;;;;;;;8.37;58.72;99189.86;25184;1313;3027974;-65
2022/05/04 02:32:37;;;;;;;6.40;2.90;;;;;;;8.30;59.20;99194.11;25168;1312;3053042;-66
2022/05/04 02:37:55;;;;;;;37.40;10.50;;;;;;;8.34;59.19;99193.75;25158;1313;3055290;-65
2022/05/04 02:40:26;;;;;;;31.20;9.10;;;;;;;8.36;59.08;99200.79;25176;1313;3026398;-65
2022/05/04 02:42:55;;;;;;;44.00;12.10;;;;;;;8.38;58.99;99201.21;25160;1313;3052338;-64
2022/05/04 02:45:25;;;;;;;41.00;9.70;;;;;;;8.33;59.24;99201.27;25175;1312;3026451;-64
2022/05/04 02:47:54;;;;;;;97.60;25.00;;;;;;;8.42;58.91;99204.48;25125;1313;3026241;-66
2022/05/04 02:50:23;;;;;;;119.70;31.90;;;;;;;8.44;59.02;99202.46;25176;1313;3029085;-64
2022/05/04 02:52:52;;;;;;;124.20;32.70;;;;;;;8.37;59.22;99202.64;25167;1313;3054823;-63
2022/05/04 02:55:21;;;;;;;86.60;28.60;;;;;;;8.39;59.17;99201.49;25186;1313;3026953;-64
2022/05/04 02:57:51;;;;;;;96.50;25.10;;;;;;;8.36;59.35;99201.98;25151;1313;3052153;-65
2022/05/04 03:00:20;;;;;;;97.60;24.50;;;;;;;8.40;58.86;99204.73;25162;1313;3027308;-65
2022/05/04 03:02:49;;;;;;;120.70;28.50;;;;;;;8.42;59.06;99206.02;25176;1313;3054364;-64
2022/05/04 03:05:19;;;;;;;76.60;21.40;;;;;;;8.41;59.42;99208.36;25135;1313;3026507;-65
2022/05/04 03:07:47;;;;;;;65.50;19.80;;;;;;;8.39;59.47;99205.51;25153;1311;3026823;-64
2022/05/04 03:10:16;;;;;;;46.40;15.70;;;;;;;8.36;59.48;99207.23;25149;1312;3026678;-65
2022/05/04 03:12:45;;;;;;;21.60;7.10;;;;;;;8.40;59.58;99207.36;25205;1313;3049411;-65
2022/05/04 03:15:14;;;;;;;13.00;4.70;;;;;;;8.32;60.11;99209.38;25141;1313;3026278;-65
2022/05/04 03:17:44;;;;;;;9.50;4.30;;;;;;;8.33;60.24;99204.44;25174;1313;3058584;-66
2022/05/04 03:20:13;;;;;;;8.90;2.90;;;;;;;8.38;60.23;99207.98;25156;1311;3026854;-65
2022/05/04 03:22:43;;;;;;;8.80;2.80;;;;;;;8.41;60.02;99209.03;25173;1312;3054620;-65
2022/05/04 03:25:12;;;;;;;8.00;3.50;;;;;;;8.44;60.11;99216.20;25177;1313;3026694;-63
2022/05/04 03:27:41;;;;;;;7.60;3.10;;;;;;;8.38;60.47;99222.85;25161;1315;3053733;-64
2022/05/04 03:30:11;;;;;;;8.40;3.60;;;;;;;8.32;60.70;99224.71;25110;1312;3030421;-64
2022/05/04 03:32:40;;;;;;;11.90;3.70;;;;;;;8.27;60.76;99223.61;25171;1313;3051079;-66
2022/05/04 03:35:09;;;;;;;10.40;3.60;;;;;;;8.19;61.39;99225.09;25158;1312;3026966;-69
2022/05/04 03:37:38;;;;;;;12.60;3.70;;;;;;;8.25;61.00;99225.65;25153;1313;3068584;-66
2022/05/04 03:40:10;;;;;;;10.70;4.00;;;;;;;8.30;60.89;99221.54;25150;1312;3026367;-65
2022/05/04 03:42:39;;;;;;;13.20;3.80;;;;;;;8.34;61.13;99223.92;25171;1312;3050725;-65
2022/05/04 03:45:08;;;;;;;11.70;3.30;;;;;;;8.31;61.14;99229.65;25186;1313;3026720;-64
2022/05/04 03:47:38;;;;;;;8.30;3.50;;;;;;;8.35;60.95;99226.64;25167;1313;3053686;-65
2022/05/04 03:50:07;;;;;;;10.50;3.20;;;;;;;8.41;60.97;99228.96;25213;1313;3026823;-66
2022/05/04 03:52:38;;;;;;;10.60;3.40;;;;;;;8.44;61.02;99225.50;25130;1312;3049810;-64
2022/05/04 03:55:07;;;;;;;10.10;3.20;;;;;;;8.44;61.14;99227.38;25153;1312;3029145;-65
2022/05/04 03:57:38;;;;;;;10.10;3.60;;;;;;;8.49;61.04;99223.45;25178;1312;3056599;-66
2022/05/04 04:00:09;;;;;;;11.50;3.80;;;;;;;8.58;60.92;99222.64;25151;1312;3026364;-64
2022/05/04 04:02:38;;;;;;;10.80;3.70;;;;;;;8.68;60.68;99222.58;25141;1313;3051948;-65
2022/05/04 04:05:08;;;;;;;8.80;3.00;;;;;;;8.74;60.73;99224.54;25197;1313;3026399;-66
2022/05/04 04:07:37;;;;;;;10.50;3.50;;;;;;;8.72;60.28;99225.14;25188;1312;3055257;-63
2022/05/04 04:10:08;;;;;;;10.50;3.60;;;;;;;8.81;60.34;99218.89;25177;1313;3026829;-65
2022/05/04 04:12:38;;;;;;;9.70;4.00;;;;;;;8.92;60.03;99219.96;25143;1313;3026599;-65
2022/05/04 04:15:07;;;;;;;18.20;4.30;;;;;;;8.98;59.63;99219.65;25121;1312;3027278;-64
2022/05/04 04:17:37;;;;;;;19.60;5.10;;;;;;;9.16;59.50;99213.34;25122;1311;3054072;-65
2022/05/04 04:22:55;;;;;;;9.50;4.20;;;;;;;9.32;58.93;99216.11;25200;1312;3049678;-63
2022/05/04 04:25:24;;;;;;;13.40;5.30;;;;;;;9.51;58.31;99217.23;25143;1313;3029431;-65
2022/05/04 04:27:53;;;;;;;20.20;7.00;;;;;;;9.63;58.07;99213.92;25189;1313;3058524;-63
2022/05/04 04:30:22;;;;;;;21.80;7.00;;;;;;;9.79;57.67;99211.70;25125;1312;3026754;-66
2022/05/04 04:32:51;;;;;;;29.50;9.10;;;;;;;9.83;57.60;99213.22;25230;1312;3052085;-66
2022/05/04 04:35:20;;;;;;;32.60;13.00;;;;;;;10.00;57.34;99210.05;25581;1313;3026978;-65
2022/05/04 04:37:49;;;;;;;35.10;12.60;;;;;;;10.17;56.74;99208.86;25325;1313;3052032;-65
2022/05/04 04:40:17;;;;;;;39.10;13.80;;;;;;;10.31;56.68;99194.99;25212;1312;3026744;-66
2022/05/04 04:42:47;;;;;;;35.00;11.70;;;;;;;10.44;56.23;99194.91;25163;1312;3047882;-68
2022/05/04 04:45:18;;;;;;;39.70;15.20;;;;;;;10.66;55.67;99196.66;25172;1313;3026428;-65
2022/05/04 04:47:47;;;;;;;35.10;14.20;;;;;;;10.71;55.61;99199.64;25172;1312;3026733;-64
2022/05/04 04:50:16;;;;;;;31.60;12.60;;;;;;;10.77;55.41;99197.35;25154;1313;3026579;-66
2022/05/04 04:52:46;;;;;;;33.60;13.80;;;;;;;10.89;55.41;99191.98;25120;1312;3054452;-65
2022/05/04 04:55:15;;;;;;;33.60;12.60;;;;;;;10.91;55.22;99194.46;25214;1313;3029988;-65
2022/05/04 04:57:44;;;;;;;26.60;11.90;;;;;;;11.03;55.45;99190.34;25138;1313;3048593;-66
2022/05/04 05:00:13;;;;;;;35.60;13.00;;;;;;;11.16;55.31;99193.17;25180;1313;3026116;-65
2022/05/04 05:02:43;;;;;;;45.50;16.00;;;;;;;11.31;55.06;99186.91;25170;1312;3069082;-65
2022/05/04 05:05:12;;;;;;;100.20;27.60;;;;;;;11.40;54.82;99186.48;25144;1312;3030479;-65
2022/05/04 05:07:41;;;;;;;189.50;47.10;;;;;;;11.38;54.71;99190.25;25166;1312;3027126;-65
2022/05/04 05:10:10;;;;;;;189.40;49.20;;;;;;;11.47;54.45;99186.20;25106;1312;3071339;-65
2022/05/04 05:12:39;;;;;;;146.50;43.60;;;;;;;11.56;54.45;99187.33;25137;1312;3026841;-64
2022/05/04 05:17:56;;;;;;;64.00;22.90;;;;;;;11.73;54.01;99187.92;25149;1312;3068864;-66
2022/05/04 05:20:25;;;;;;;73.40;22.50;;;;;;;11.70;54.03;99186.73;25168;1312;3029229;-68
2022/05/04 05:22:54;;;;;;;57.40;20.60;;;;;;;11.78;54.24;99183.38;25113;1312;3053516;-66
2022/05/04 05:25:24;;;;;;;28.30;11.70;;;;;;;11.88;54.14;99182.64;25156;1312;3026457;-67
2022/05/04 05:27:53;;;;;;;26.50;9.20;;;;;;;11.92;53.93;99183.58;25160;1312;3054560;-67
2022/05/04 05:30:22;;;;;;;25.50;10.80;;;;;;;12.09;53.61;99183.66;25139;1313;3026503;-67
2022/05/04 05:32:51;;;;;;;25.90;9.40;;;;;;;12.16;53.40;99184.90;25199;1313;3051285;-66
2022/05/04 05:35:21;;;;;;;25.60;9.50;;;;;;;12.23;53.06;99179.80;25185;1313;3026901;-67
2022/05/04 05:37:50;;;;;;;35.40;10.90;;;;;;;12.31;52.95;99178.52;25153;1313;3056293;-66
2022/05/04 05:40:19;;;;;;;58.30;18.80;;;;;;;12.25;53.06;99180.94;25200;1313;3026649;-67
2022/05/04 05:42:48;;;;;;;25.80;11.00;;;;;;;12.28;53.28;99175.95;25135;1313;3054488;-67
2022/05/04 05:45:17;;;;;;;61.50;18.10;;;;;;;12.39;53.04;99173.09;25218;1313;3026603;-66
2022/05/04 05:47:48;;;;;;;32.80;11.60;;;;;;;12.44;52.90;99174.85;25186;1312;3051554;-66
2022/05/04 05:50:17;;;;;;;51.40;15.00;;;;;;;12.58;52.75;99171.35;25170;1313;3026578;-67
2022/05/04 05:52:48;;;;;;;34.70;12.90;;;;;;;12.58;52.84;99169.52;25109;1312;3026797;-67
2022/05/04 05:55:17;;;;;;;23.00;9.60;;;;;;;12.67;52.65;99170.14;25156;1313;3030129;-68
2022/05/04 05:57:46;;;;;;;70.70;19.80;;;;;;;12.80;52.22;99167.91;25121;1312;3053979;-67
2022/05/04 06:00:15;;;;;;;62.80;16.90;;;;;;;12.74;52.53;99169.94;25172;1313;3026974;-69
2022/05/04 06:02:46;;;;;;;57.60;14.80;;;;;;;12.81;51.59;99166.48;25161;1313;3054440;-67
2022/05/04 06:05:15;;;;;;;55.60;15.80;;;;;;;12.90;51.61;99168.27;25187;1313;3029288;-67
2022/05/04 06:07:44;;;;;;;30.20;10.40;;;;;;;12.87;51.56;99166.00;25175;1313;3052803;-67
2022/05/04 06:10:13;;;;;;;16.90;6.60;;;;;;;12.97;51.00;99171.42;25232;1313;3026376;-67
2022/05/04 06:12:59;;;;;;;23.10;9.10;;;;;;;13.11;50.99;99172.48;25134;1312;3071197;-67
2022/05/04 06:15:28;;;;;;;22.10;9.20;;;;;;;13.18;51.16;99169.36;25164;1312;3026633;-67
2022/05/04 06:17:57;;;;;;;17.60;8.40;;;;;;;13.26;51.11;99171.89;25195;1313;3026831;-67
2022/05/04 06:20:27;;;;;;;31.90;10.10;;;;;;;13.35;50.66;99171.04;25147;1313;3070577;-67
2022/05/04 06:22:56;;;;;;;23.20;8.60;;;;;;;13.44;50.34;99168.57;25199;1313;3027128;-67
2022/05/04 06:25:25;;;;;;;23.40;9.30;;;;;;;13.58;50.15;99169.84;25179;1313;3026289;-67
2022/05/04 06:27:55;;;;;;;28.70;8.30;;;;;;;13.72;49.75;99167.11;25246;1313;3027547;-67
2022/05/04 06:35:59;;;;;;;20.50;7.40;;;;;;;13.99;48.23;99155.81;25186;1313;3054566;-67
2022/05/04 06:38:28;;;;;;;14.10;6.30;;;;;;;14.04;48.16;99154.56;25099;1313;3028047;-67
2022/05/04 06:40:57;;;;;;;23.80;6.80;;;;;;;14.10;48.21;99158.88;25192;1313;3054809;-69
2022/05/04 06:43:27;;;;;;;22.00;7.00;;;;;;;14.20;46.95;99158.61;25150;1312;3026647;-68
2022/05/04 06:45:56;;;;;;;19.00;8.60;;;;;;;14.25;46.96;99156.44;25095;1313;3048272;-67
2022/05/04 06:48:25;;;;;;;22.00;7.50;;;;;;;14.32;47.00;99155.73;25204;1313;3026574;-68
2022/05/04 06:50:54;;;;;;;10.50;6.30;;;;;;;14.44;46.76;99151.35;25134;1313;3068490;-67
2022/05/04 06:53:23;;;;;;;19.70;6.30;;;;;;;14.58;46.43;99151.79;25191;1312;3026171;-68
2022/05/04 06:55:52;;;;;;;16.90;6.10;;;;;;;14.72;46.95;99148.04;25156;1313;3053763;-68
2022/05/04 06:58:21;;;;;;;15.30;5.20;;;;;;;14.88;46.72;99143.42;25184;1313;3026391;-67
2022/05/04 07:00:50;;;;;;;11.30;5.40;;;;;;;14.89;46.06;99145.94;25209;1313;3052432;-67
2022/05/04 07:03:21;;;;;;;19.70;5.40;;;;;;;14.86;46.23;99145.71;25146;1312;3028849;-68
2022/05/04 07:05:52;;;;;;;17.80;5.30;;;;;;;15.01;46.67;99145.34;25136;1312;3050006;-67
2022/05/04 07:08:21;;;;;;;14.90;5.00;;;;;;;15.01;46.65;99153.92;25186;1312;3027887;-68
2022/05/04 07:10:51;;;;;;;12.40;5.30;;;;;;;15.07;46.06;99154.98;25191;1313;3057565;-67
2022/05/04 07:13:21;;;;;;;13.00;4.70;;;;;;;15.07;46.37;99151.84;25150;1313;3029778;-68
2022/05/04 07:15:51;;;;;;;9.20;5.30;;;;;;;15.09;46.48;99147.45;25169;1313;3026828;-67
2022/05/04 07:18:20;;;;;;;13.70;5.10;;;;;;;15.23;45.98;99149.48;25158;1313;3026541;-68
2022/05/04 07:20:49;;;;;;;22.10;7.10;;;;;;;15.34;45.47;99147.63;25181;1313;3052258;-68
2022/05/04 07:23:18;;;;;;;36.50;11.00;;;;;;;15.42;44.75;99146.58;25137;1312;3026275;-69
2022/05/04 07:25:47;;;;;;;18.10;6.60;;;;;;;15.51;44.91;99148.85;25186;1312;3026668;-68
2022/05/04 07:28:16;;;;;;;36.30;11.00;;;;;;;15.62;44.39;99151.06;25126;1312;3049440;-68
2022/05/04 07:30:46;;;;;;;30.50;9.30;;;;;;;15.79;44.42;99145.55;25135;1313;3027507;-67
2022/05/04 07:33:15;;;;;;;15.40;6.20;;;;;;;16.06;44.72;99142.70;25178;1312;3026583;-68
2022/05/04 07:35:44;;;;;;;11.80;5.60;;;;;;;16.32;44.75;99142.65;25150;1313;3049736;-68
2022/05/04 07:38:13;;;;;;;16.60;5.00;;;;;;;16.43;44.04;99150.68;25203;1313;3026871;-68
2022/05/04 07:43:31;;;;;;;14.30;5.30;;;;;;;16.59;43.38;99141.14;25115;1313;3051389;-68
2022/05/04 07:46:00;;;;;;;15.50;4.50;;;;;;;16.74;43.09;99137.61;25159;1313;3026726;-68
2022/05/04 07:48:29;;;;;;;15.80;5.10;;;;;;;16.88;43.41;99135.63;25195;1313;3029077;-68
2022/05/04 07:50:58;;;;;;;17.10;6.50;;;;;;;17.06;43.79;99134.42;25144;1313;3050835;-69
2022/05/04 07:53:27;;;;;;;21.90;7.50;;;;;;;17.12;44.11;99141.45;25205;1313;3026010;-69
2022/05/04 07:55:56;;;;;;;18.60;8.40;;;;;;;17.12;43.77;99140.89;25126;1312;3054735;-69
2022/05/04 07:58:25;;;;;;;14.20;5.40;;;;;;;17.09;43.48;99142.23;25187;1313;3026789;-69
2022/05/04 08:06:30;;;;;;;15.30;5.10;;;;;;;17.37;41.99;99134.19;25154;1313;3052810;-67
2022/05/04 08:08:59;;;;;;;15.00;5.10;;;;;;;17.57;42.14;99132.77;25155;1316;3028509;-68
2022/05/04 08:11:28;;;;;;;11.40;4.40;;;;;;;17.53;40.76;99137.27;24862;1313;3472635;-69
2022/05/04 08:13:57;;;;;;;14.00;3.90;;;;;;;17.64;41.10;99130.54;25182;1313;3028839;-69
2022/05/04 08:16:26;;;;;;;8.40;3.70;;;;;;;17.82;40.89;99127.30;25211;1313;3053101;-68
2022/05/04 08:18:55;;;;;;;10.50;4.40;;;;;;;17.99;40.13;99126.86;25155;1313;3026939;-69
2022/05/04 08:21:24;;;;;;;11.80;4.00;;;;;;;17.93;39.52;99132.56;25163;1313;3051365;-70
2022/05/04 08:23:53;;;;;;;15.90;4.50;;;;;;;17.97;39.08;99132.02;25211;1313;3028975;-68
2022/05/04 08:26:23;;;;;;;13.30;4.30;;;;;;;17.91;39.25;99132.64;25184;1313;3026735;-69
2022/05/04 08:28:52;;;;;;;10.50;3.50;;;;;;;18.04;38.70;99127.34;25148;1313;3026596;-68
2022/05/04 08:31:21;;;;;;;8.40;3.80;;;;;;;18.07;37.86;99122.90;25217;1313;3052271;-69
2022/05/04 08:33:51;;;;;;;12.20;4.90;;;;;;;18.02;39.26;99129.92;25184;1313;3026647;-70
2022/05/04 08:36:20;;;;;;;9.90;4.10;;;;;;;18.16;39.44;99125.61;25195;1313;3026751;-69
2022/05/04 08:38:49;;;;;;;9.40;4.50;;;;;;;18.18;39.74;99127.17;25171;1313;3054678;-69
2022/05/04 08:41:18;;;;;;;7.30;4.30;;;;;;;18.37;39.76;99122.70;25196;1313;3026539;-69
2022/05/04 08:43:47;;;;;;;6.90;3.70;;;;;;;18.36;38.90;99117.08;25211;1313;3051666;-70
2022/05/04 08:46:16;;;;;;;14.40;4.10;;;;;;;18.39;39.26;99115.48;25195;1313;3027254;-69
2022/05/04 08:48:45;;;;;;;14.70;4.20;;;;;;;18.52;38.85;99120.35;25234;1313;3051558;-70
2022/05/04 08:51:14;;;;;;;9.20;3.80;;;;;;;18.64;38.69;99116.62;25255;1313;3026873;-68
2022/05/04 08:53:45;;;;;;;9.70;3.40;;;;;;;18.76;38.30;99113.85;25907;1312;3067688;-70
2022/05/04 08:56:15;;;;;;;11.40;4.50;;;;;;;18.83;37.16;99114.20;25955;1312;3026156;-68
2022/05/04 08:58:44;;;;;;;11.80;3.70;;;;;;;18.63;36.59;99119.80;25714;1313;3027744;-69
2022/05/04 09:01:13;;;;;;;11.10;3.00;;;;;;;18.71;35.41;99119.51;25215;1313;3026774;-70
2022/05/04 09:03:42;;;;;;;7.30;3.10;;;;;;;18.77;34.68;99124.73;25181;1313;3048512;-70
2022/05/04 09:06:11;;;;;;;14.20;3.00;;;;;;;18.73;34.03;99124.77;25173;1312;3027507;-69
2022/05/04 09:08:53;;;;;;;8.90;3.20;;;;;;;18.82;34.04;99116.07;25124;1313;3068258;-70
2022/05/04 09:11:23;;;;;;;7.40;3.00;;;;;;;18.88;34.12;99109.66;25162;1313;3049295;-68
2022/05/04 09:13:52;;;;;;;12.00;3.50;;;;;;;19.17;35.21;99105.65;25180;1313;3029266;-69
2022/05/04 09:16:40;;;;;;;6.80;3.40;;;;;;;19.33;34.73;99098.88;25197;1313;3026452;-69
2022/05/04 09:19:11;;;;;;;7.10;3.20;;;;;;;19.72;34.15;99097.35;25175;1313;3049382;-70
2022/05/04 09:21:41;;;;;;;8.00;3.30;;;;;;;19.83;33.93;99105.54;25163;1313;3026565;-70
2022/05/04 09:24:10;;;;;;;12.90;2.90;;;;;;;19.96;34.35;99095.92;25150;1313;3026407;-70
2022/05/04 09:26:40;;;;;;;9.30;2.90;;;;;;;20.18;33.66;99091.77;25177;1317;3026898;-69
2022/05/04 09:29:13;;;;;;;7.40;2.70;;;;;;;20.38;33.63;99089.46;25202;1311;3026347;-70
2022/05/04 09:31:47;;;;;;;10.60;2.80;;;;;;;20.28;33.80;99098.38;25199;1313;3053403;-69
2022/05/04 09:34:16;;;;;;;10.40;2.90;;;;;;;20.06;33.62;99093.81;25157;1313;3026483;-69
2022/05/04 09:45:13;;;;;;;11.10;2.80;;;;;;;19.99;33.34;99083.17;25215;1313;3052284;-70
2022/05/04 09:47:46;;;;;;;11.60;2.40;;;;;;;19.88;33.40;99092.97;25138;1313;3055524;-69
2022/05/04 09:50:16;;;;;;;9.00;3.00;;;;;;;20.05;32.81;99093.91;25192;1313;3026444;-68
2022/05/04 09:52:50;;;;;;;12.00;3.80;;;;;;;20.21;32.65;99085.08;25229;1315;3026816;-70
2022/05/04 09:55:21;;;;;;;9.60;3.60;;;;;;;20.20;32.68;99080.36;25195;1313;3053762;-69
2022/05/04 09:57:52;;;;;;;10.10;3.80;;;;;;;20.38;32.64;99077.05;25156;1313;3026296;-70
2022/05/04 10:00:23;;;;;;;12.50;4.00;;;;;;;20.55;32.52;99068.59;25190;1313;3026463;-69
2022/05/04 10:02:53;;;;;;;6.80;3.30;;;;;;;20.65;32.12;99078.80;25166;1313;3029052;-68
2022/05/04 10:05:23;;;;;;;9.90;3.20;;;;;;;20.41;31.89;99072.95;25134;1313;3026488;-70
2022/05/04 10:07:52;;;;;;;6.80;3.20;;;;;;;20.40;32.04;99069.16;25143;1313;3026862;-71
2022/05/04 10:10:26;;;;;;;8.60;2.70;;;;;;;20.23;31.93;99074.67;25165;1313;3052273;-71
2022/05/04 10:12:58;;;;;;;9.20;2.80;;;;;;;20.25;32.43;99069.54;25156;1313;3026462;-71
2022/05/04 10:15:27;;;;;;;8.50;2.70;;;;;;;20.31;32.50;99060.17;25179;1313;3027048;-71
2022/05/04 10:18:13;;;;;;;8.50;3.40;;;;;;;20.33;32.96;99060.12;25155;1313;3026717;-71
2022/05/04 10:21:01;;;;;;;6.40;3.00;;;;;;;20.02;33.58;99073.06;25139;1313;3053024;-71
2022/05/04 10:23:33;;;;;;;5.60;3.10;;;;;;;19.91;33.83;99065.98;25182;1313;3053447;-71
2022/05/04 10:26:04;;;;;;;6.00;3.00;;;;;;;20.04;33.62;99065.91;25131;1313;3026213;-69
2022/05/04 10:28:36;;;;;;;6.90;2.60;;;;;;;20.10;33.58;99066.02;25228;1313;3027264;-71
2022/05/04 10:31:11;;;;;;;7.00;3.60;;;;;;;20.02;33.36;99070.55;25188;1313;3028713;-69
2022/05/04 10:33:43;;;;;;;15.70;4.00;;;;;;;19.88;33.73;99060.91;25196;1313;3052144;-70
2022/05/04 10:36:19;;;;;;;14.20;3.20;;;;;;;19.92;34.01;99058.63;25147;1313;3026963;-69
2022/05/04 10:38:52;;;;;;;9.30;3.10;;;;;;;19.98;34.23;99051.66;25136;1313;3051800;-71
2022/05/04 10:41:35;;;;;;;9.70;3.40;;;;;;;20.13;33.93;99053.72;25184;1316;3028249;-71
2022/05/04 10:44:09;;;;;;;12.50;4.60;;;;;;;20.35;33.47;99053.89;25154;1312;3054117;-70
2022/05/04 10:46:40;;;;;;;12.30;3.40;;;;;;;20.47;33.51;99042.44;25138;1313;3069097;-70
2022/05/04 10:49:13;;;;;;;11.30;4.10;;;;;;;20.39;33.03;99045.98;25204;1316;3026401;-70
2022/05/04 10:51:44;;;;;;;14.10;3.80;;;;;;;20.79;32.95;99038.50;25150;1313;3053413;-71
2022/05/04 10:54:16;;;;;;;10.20;5.10;;;;;;;20.96;33.11;99039.80;25236;1312;3027427;-69
2022/05/04 10:56:46;;;;;;;8.30;3.10;;;;;;;20.91;32.54;99037.87;25193;1313;3028757;-71
2022/05/04 10:59:24;;;;;;;7.60;2.80;;;;;;;20.94;32.23;99036.67;25162;1313;3028562;-70
2022/05/04 11:01:57;;;;;;;9.80;2.90;;;;;;;20.74;32.41;99032.46;25198;1313;3053069;-69
2022/05/04 11:04:26;;;;;;;7.40;2.70;;;;;;;20.97;32.09;99028.65;25120;1313;3026410;-70
2022/05/04 11:07:03;;;;;;;10.90;2.80;;;;;;;20.86;32.49;99029.11;25214;1313;3026417;-71
2022/05/04 11:09:37;;;;;;;9.00;3.00;;;;;;;20.76;32.60;99019.43;25161;1313;3053059;-70
2022/05/04 11:12:08;;;;;;;9.80;2.90;;;;;;;20.77;32.52;99017.70;25288;1312;3051849;-72
2022/05/04 11:14:37;;;;;;;11.90;3.50;;;;;;;20.56;33.07;99020.48;25142;1312;3026829;-72
2022/05/04 11:17:13;;;;;;;10.50;3.50;;;;;;;20.51;33.26;99017.52;25281;1313;3026537;-73
2022/05/04 11:19:46;;;;;;;9.20;3.30;;;;;;;20.52;33.38;99017.42;25154;1312;3051797;-71
2022/05/04 11:22:16;;;;;;;12.30;3.20;;;;;;;20.70;33.05;99017.88;25210;1313;3067943;-72
2022/05/04 11:24:45;;;;;;;16.40;3.40;;;;;;;20.55;33.75;99010.82;25205;1313;3027307;-69
2022/05/04 11:27:17;;;;;;;6.20;3.00;;;;;;;20.45;34.37;99014.22;25144;1312;3028013;-71
2022/05/04 11:29:46;;;;;;;6.70;2.80;;;;;;;20.39;34.28;99005.23;25129;1313;3070931;-73
2022/05/04 11:32:19;;;;;;;7.40;2.90;;;;;;;20.79;33.85;98999.45;25206;1313;3029852;-70
2022/05/04 11:34:48;;;;;;;6.70;2.50;;;;;;;21.18;32.56;98995.70;25109;1313;3050110;-71
2022/05/04 11:37:17;;;;;;;12.60;3.00;;;;;;;21.24;32.42;99004.10;25251;1312;3028184;-73
2022/05/04 11:39:47;;;;;;;8.30;2.90;;;;;;;21.42;32.31;98989.45;25153;1313;3055663;-73
2022/05/04 11:42:16;;;;;;;9.80;3.10;;;;;;;21.58;32.50;98985.17;25198;1313;3026782;-72
2022/05/04 11:44:52;;;;;;;13.70;3.50;;;;;;;21.35;32.45;98991.52;25357;1312;3052424;-70
2022/05/04 11:47:21;;;;;;;5.50;2.90;;;;;;;21.20;32.78;98993.18;25187;1313;3027042;-70
2022/05/04 11:49:53;;;;;;;6.70;2.50;;;;;;;21.00;33.24;98988.45;25186;1313;3026444;-71
2022/05/04 11:52:22;;;;;;;7.50;2.80;;;;;;;20.90;33.71;98978.35;25121;1313;3027039;-70
2022/05/04 11:54:52;;;;;;;8.40;3.10;;;;;;;21.19;33.43;98975.05;25157;1313;3026352;-68
2022/05/04 11:57:22;;;;;;;7.50;2.80;;;;;;;21.11;33.03;98982.60;25177;1313;3028966;-70
2022/05/04 11:59:51;;;;;;;11.90;3.40;;;;;;;20.80;33.86;98980.38;25217;1312;3027214;-72